WetterOnline ( https://www.wetteronline.at )

Wetter aktuell Kassel

Aktuelles Wetter: Schauenburg-Elgershausen (317m)

6-stündlich | Neueste Meldungen
Ortszeit Temperatur Wetter
Mi, 26.06. 8:00 23.5° C wolkenlos
Mi, 26.06. 2:00 22.5° C wolkenlos
Di, 25.06. 20:00 29.9° C wolkenlos
Di, 25.06. 14:00 28.8° C wolkenlos
Di, 25.06. 8:00 22.7° C leicht bewölkt
Di, 25.06. 2:00 19.9° C wolkenlos
Mo, 24.06. 20:00 26.0° C leicht bewölkt
Mo, 24.06. 14:00 26.0° C fast wolkenlos
Ortszeit Temperatur Wetter
Mi, 26.06. 11:30 28.5° C wolkenlos
Mi, 26.06. 11:10 28.7° C wolkenlos
Mi, 26.06. 11:00 28.2° C fast wolkenlos
Mi, 26.06. 10:50 28.2° C fast wolkenlos
Mi, 26.06. 10:40 28.2° C fast wolkenlos
Mi, 26.06. 10:30 28.0° C wolkenlos
Mi, 26.06. 10:00 27.3° C wolkenlos
Mi, 26.06. 9:30 27.0° C wolkenlos
Mi, 26.06. 9:00 25.7° C wolkenlos
Mi, 26.06. 8:30 25.1° C wolkenlos
Mi, 26.06. 8:00 23.5° C wolkenlos
Ortszeit Relative Feuchte Sichtweite
Mi, 26.06. 8:00 77% 28 km
Mi, 26.06. 2:00 76% 40 km
Di, 25.06. 20:00 46% >70 km
Di, 25.06. 14:00 47% 40 km
Di, 25.06. 8:00 53% 60 km
Di, 25.06. 2:00 54% >70 km
Mo, 24.06. 20:00 44% 60 km
Mo, 24.06. 14:00 49% 40 km
Ortszeit Relative Feuchte Sichtweite
Mi, 26.06. 11:30 60% 40 km
Mi, 26.06. 11:10 61% -
Mi, 26.06. 11:00 62% 40 km
Mi, 26.06. 10:50 62% -
Mi, 26.06. 10:40 61% -
Mi, 26.06. 10:30 64% 35 km
Mi, 26.06. 10:00 64% 30 km
Mi, 26.06. 9:30 66% 30 km
Mi, 26.06. 9:00 71% 30 km
Mi, 26.06. 8:30 70% 35 km
Mi, 26.06. 8:00 77% 28 km
Ortszeit Niederschlagsmenge Niederschlagsart
Mi, 26.06. 8:00 0.0 l/m2 in 12 Std. -
Mi, 26.06. 2:00 0.0 l/m2 in 6 Std. -
Di, 25.06. 20:00 0.0 l/m2 in 12 Std. -
Di, 25.06. 14:00 0.0 l/m2 in 6 Std. -
Di, 25.06. 8:00 0.0 l/m2 in 12 Std. -
Di, 25.06. 2:00 0.0 l/m2 in 6 Std. -
Mo, 24.06. 20:00 0.0 l/m2 in 12 Std. -
Mo, 24.06. 14:00 0.0 l/m2 in 6 Std. -
Ortszeit Niederschlagsmenge Niederschlagsart
Mi, 26.06. 11:30 0.0 l/m2 in 1 Std. -
Mi, 26.06. 11:10 keine Meldung -
Mi, 26.06. 11:00 0.0 l/m2 in 1 Std. -
Mi, 26.06. 10:50 keine Meldung -
Mi, 26.06. 10:40 keine Meldung -
Mi, 26.06. 10:30 0.0 l/m2 in 1 Std. -
Mi, 26.06. 10:00 0.0 l/m2 in 1 Std. -
Mi, 26.06. 9:30 0.0 l/m2 in 1 Std. -
Mi, 26.06. 9:00 0.0 l/m2 in 1 Std. -
Mi, 26.06. 8:30 0.0 l/m2 in 1 Std. -
Mi, 26.06. 8:00 0.0 l/m2 in 1 Std. -
Ortszeit Stärke Spitze Richtung
km/h Bft. km/h Grad Sektor
Mi, 26.06. 8:00 4 1 11 140° SO
Mi, 26.06. 2:00 9 2 17 10° N
Di, 25.06. 20:00 6 1 26 210° SW
Di, 25.06. 14:00 14 3 29 160° S
Di, 25.06. 8:00 2 1 11 130° SO
Di, 25.06. 2:00 4 1 22 360° N
Mo, 24.06. 20:00 11 2 32 80° O
Mo, 24.06. 14:00 13 3 26 90° O
Ortszeit Stärke Spitze Richtung
km/h Bft. km/h Grad Sektor
Mi, 26.06. 11:30 11 2 18 300° NW
Mi, 26.06. 11:10 11 2 - 300° NW
Mi, 26.06. 11:00 9 2 17 300° NW
Mi, 26.06. 10:50 9 2 - 300° NW
Mi, 26.06. 10:40 7 2 - 290° W
Mi, 26.06. 10:30 7 2 18 300° NW
Mi, 26.06. 10:00 9 2 17 300° NW
Mi, 26.06. 9:30 7 2 14 250° W
Mi, 26.06. 9:00 6 1 13 180° S
Mi, 26.06. 8:30 4 1 7 150° SO
Mi, 26.06. 8:00 4 1 4 140° SO
Ortszeit Untergrenze Bedeckung Gattung
total tief tief mittel hoch
Mi, 26.06. 8:00 - 0/8 0/8 - - -
Mi, 26.06. 2:00 - 0/8 0/8 - - -
Di, 25.06. 20:00 - 0/8 0/8 - - -
Di, 25.06. 14:00 - 0/8 0/8 - - -
Di, 25.06. 8:00 10500 m 5/8 0/8 - - -
Di, 25.06. 2:00 - 0/8 0/8 - - -
Mo, 24.06. 20:00 12000 m 5/8 0/8 - - -
Mo, 24.06. 14:00 1500 m 1/8 1/8 - - -
Ortszeit Bedeckungsgrad in Achtel und Wolkenuntergrenze
Mi, 26.06. 11:30 keine Wolken
Mi, 26.06. 11:10 keine Wolken
Mi, 26.06. 11:00 1(9000m)
Mi, 26.06. 10:50 1(9000m)
Mi, 26.06. 10:40 2(9000m)
Mi, 26.06. 10:30 keine Wolken
Mi, 26.06. 10:00 keine Wolken
Mi, 26.06. 9:30 keine Wolken
Mi, 26.06. 9:00 keine Wolken
Mi, 26.06. 8:30 keine Wolken
Mi, 26.06. 8:00 keine Wolken
Ortszeit Luftdruck NN (hPa) Tendenz (hPa in 3 Std.)
Mi, 26.06. 8:00 1021 + 1,0
Mi, 26.06. 2:00 1020 + 0,2
Di, 25.06. 20:00 1018 + 0,1
Di, 25.06. 14:00 1019 - 0,4
Di, 25.06. 8:00 1020 + 0,4
Di, 25.06. 2:00 1021 - 0,3
Mo, 24.06. 20:00 1020 - 0,1
Mo, 24.06. 14:00 1020 - 0,6
Ortszeit Luftdruck NN (hPa) Tendenz (hPa in 3 Std.)
Mi, 26.06. 11:30 1022 + 1,2
Mi, 26.06. 11:10 1022 keine Meldung
Mi, 26.06. 11:00 1022 + 1,2
Mi, 26.06. 10:50 1022 keine Meldung
Mi, 26.06. 10:40 1022 keine Meldung
Mi, 26.06. 10:30 1022 + 1,3
Mi, 26.06. 10:00 1022 + 1,2
Mi, 26.06. 9:30 1022 + 1,1
Mi, 26.06. 9:00 1021 + 1,0
Mi, 26.06. 8:30 1021 + 1,0
Mi, 26.06. 8:00 1021 + 1,0
Ortszeit Schneehöhe (cm)
Mi, 26.06. 8:00 -
Mi, 26.06. 2:00 -
Di, 25.06. 20:00 -
Di, 25.06. 14:00 -
Di, 25.06. 8:00 -
Di, 25.06. 2:00 -
Mo, 24.06. 20:00 -
Mo, 24.06. 14:00 -
Ortszeit Schneehöhe (cm)
Mi, 26.06. 11:30 -
Mi, 26.06. 11:10 -
Mi, 26.06. 11:00 -
Mi, 26.06. 10:50 -
Mi, 26.06. 10:40 -
Mi, 26.06. 10:30 -
Mi, 26.06. 10:00 -
Mi, 26.06. 9:30 -
Mi, 26.06. 9:00 -
Mi, 26.06. 8:30 -
Mi, 26.06. 8:00 -
Link zu dieser Seite / Seite empfehlen

Das Wetter in ...